createdAt,value
2023-01-25T00:00:48.586Z,102623.03
2023-01-25T00:03:16.503Z,102613.53
2023-01-25T00:05:47.235Z,102610.09
2023-01-25T00:08:14.943Z,102614.44
2023-01-25T00:10:42.697Z,102605.84
2023-01-25T00:13:11.883Z,102604.19
2023-01-25T00:15:39.565Z,102605.06
2023-01-25T00:18:07.369Z,102596.31
2023-01-25T00:20:35.131Z,102602.34
2023-01-25T00:23:02.835Z,102595.41
2023-01-25T00:25:30.569Z,102587.50
2023-01-25T00:27:58.249Z,102576.22
2023-01-25T00:34:47.143Z,102575.38
2023-01-25T00:37:21.543Z,102572.69
2023-01-25T00:39:49.265Z,102564.75
2023-01-25T00:42:19.319Z,102567.28
2023-01-25T00:44:48.100Z,102560.44
2023-01-25T00:47:16.298Z,102556.25
2023-01-25T00:49:46.144Z,102556.97
2023-01-25T00:52:14.686Z,102553.56
2023-01-25T00:54:42.433Z,102564.78
2023-01-25T00:57:10.936Z,102559.75
2023-01-25T00:59:38.699Z,102558.06
2023-01-25T01:02:06.472Z,102560.66
2023-01-25T01:04:34.296Z,102560.44
2023-01-25T01:07:04.239Z,102555.16
2023-01-25T01:09:31.918Z,102552.50
2023-01-25T01:11:59.564Z,102547.22
2023-01-25T01:14:29.233Z,102542.00
2023-01-25T01:16:58.061Z,102545.31
2023-01-25T01:19:26.238Z,102551.44
2023-01-25T01:21:53.873Z,102555.81
2023-01-25T01:24:24.569Z,102552.44
2023-01-25T01:26:52.346Z,102558.41
2023-01-25T01:29:20.018Z,102553.34
2023-01-25T01:31:51.176Z,102558.56
2023-01-25T01:34:23.114Z,102550.72
2023-01-25T01:36:51.140Z,102549.88
2023-01-25T01:39:18.847Z,102552.50
2023-01-25T01:41:47.880Z,102555.94
2023-01-25T01:44:19.039Z,102555.09
2023-01-25T01:46:55.939Z,102553.25
2023-01-25T01:49:30.018Z,102555.03
2023-01-25T01:52:13.701Z,102561.03
2023-01-25T01:54:48.043Z,102561.88
2023-01-25T01:57:20.925Z,102556.59
2023-01-25T01:59:54.318Z,102553.09
2023-01-25T02:02:26.101Z,102552.19
2023-01-25T02:05:07.303Z,102550.53
2023-01-25T02:07:37.399Z,102551.38
2023-01-25T02:10:07.032Z,102551.34
2023-01-25T02:12:37.808Z,102548.72
2023-01-25T02:15:10.445Z,102547.66
2023-01-25T02:17:44.053Z,102537.19
2023-01-25T02:20:25.072Z,102539.72
2023-01-25T02:23:00.005Z,102539.69
2023-01-25T02:25:30.031Z,102531.69
2023-01-25T02:28:03.392Z,102531.75
2023-01-25T02:30:32.195Z,102529.16
2023-01-25T02:33:00.001Z,102528.38
2023-01-25T02:35:39.584Z,102525.75
2023-01-25T02:38:08.318Z,102536.22
2023-01-25T02:40:46.943Z,102526.72
2023-01-25T02:43:16.542Z,102537.06
2023-01-25T02:46:18.762Z,102528.28
2023-01-25T02:49:01.152Z,102517.09
2023-01-25T02:51:34.797Z,102518.84
2023-01-25T02:54:04.772Z,102518.94
2023-01-25T02:56:34.058Z,102516.28
2023-01-25T02:59:05.460Z,102513.66
2023-01-25T03:01:34.977Z,102501.84
2023-01-25T03:04:03.440Z,102506.19
2023-01-25T03:06:31.170Z,102500.06
2023-01-25T03:08:59.113Z,102496.66
2023-01-25T03:11:27.571Z,102495.81
2023-01-25T03:13:59.579Z,102499.38
2023-01-25T03:16:27.553Z,102496.75
2023-01-25T03:18:56.935Z,102491.44
2023-01-25T03:21:25.839Z,102486.38
2023-01-25T03:23:57.791Z,102482.97
2023-01-25T03:26:27.555Z,102477.63
2023-01-25T03:29:16.130Z,102466.19
2023-01-25T03:31:46.252Z,102459.22
2023-01-25T03:34:17.874Z,102459.94
2023-01-25T03:36:45.595Z,102451.13
2023-01-25T03:39:13.753Z,102449.28
2023-01-25T03:41:47.039Z,102440.63
2023-01-25T03:44:18.399Z,102440.88
2023-01-25T03:46:48.089Z,102439.13
2023-01-25T03:49:15.844Z,102439.16
2023-01-25T03:51:43.563Z,102438.25
2023-01-25T03:54:12.319Z,102446.09
2023-01-25T03:56:40.988Z,102439.97
2023-01-25T03:59:13.576Z,102438.22
2023-01-25T04:01:42.701Z,102430.38
2023-01-25T04:04:10.404Z,102423.44
2023-01-25T04:06:42.920Z,102430.44
2023-01-25T04:09:14.389Z,102423.38
2023-01-25T04:11:53.310Z,102419.88
2023-01-25T04:14:35.103Z,102424.94
2023-01-25T04:17:10.896Z,102419.59
2023-01-25T04:19:41.395Z,102423.00
2023-01-25T04:22:13.603Z,102416.00
2023-01-25T04:24:42.159Z,102412.56
2023-01-25T04:27:10.308Z,102402.94
2023-01-25T04:29:50.841Z,102415.22
2023-01-25T04:32:22.538Z,102410.06
2023-01-25T04:34:50.433Z,102414.50
2023-01-25T04:37:22.221Z,102412.75
2023-01-25T04:39:57.260Z,102407.47
2023-01-25T04:42:25.729Z,102411.78
2023-01-25T04:44:56.373Z,102403.88
2023-01-25T04:47:28.215Z,102399.34
2023-01-25T04:49:55.945Z,102405.38
2023-01-25T04:52:34.902Z,102407.19
2023-01-25T04:55:02.579Z,102402.03
2023-01-25T04:57:35.132Z,102407.84
2023-01-25T05:00:03.605Z,102409.53
2023-01-25T05:02:33.012Z,102407.00
2023-01-25T05:05:00.773Z,102398.34
2023-01-25T05:07:29.754Z,102402.63
2023-01-25T05:09:57.483Z,102406.16
2023-01-25T05:12:30.638Z,102392.31
2023-01-25T05:15:05.123Z,102399.25
2023-01-25T05:17:34.673Z,102395.72
2023-01-25T05:20:02.400Z,102397.47
2023-01-25T05:22:30.154Z,102389.56
2023-01-25T05:24:59.092Z,102393.09
2023-01-25T05:27:25.962Z,102390.56
2023-01-25T05:29:57.704Z,102388.00
2023-01-25T05:32:41.610Z,102391.53
2023-01-25T05:35:21.291Z,102394.19
2023-01-25T05:37:51.043Z,102386.44
2023-01-25T05:40:23.527Z,102385.78
2023-01-25T05:42:55.786Z,102391.78
2023-01-25T05:45:27.136Z,102388.38
2023-01-25T05:47:58.302Z,102392.66
2023-01-25T05:50:27.486Z,102382.19
2023-01-25T05:53:01.447Z,102376.06
2023-01-25T05:55:30.546Z,102379.44
2023-01-25T05:58:03.140Z,102380.22
2023-01-25T06:00:33.071Z,102380.97
2023-01-25T06:03:03.053Z,102378.25
2023-01-25T06:05:35.537Z,102376.59
2023-01-25T06:08:10.798Z,102375.81
2023-01-25T06:10:47.480Z,102369.84
2023-01-25T06:13:17.863Z,102370.84
2023-01-25T06:15:55.586Z,102372.41
2023-01-25T06:18:45.967Z,102366.38
2023-01-25T06:21:37.334Z,102363.97
2023-01-25T06:24:05.783Z,102369.00
2023-01-25T06:26:33.534Z,102371.75
2023-01-25T06:29:03.418Z,102369.16
2023-01-25T06:31:45.130Z,102368.22
2023-01-25T06:34:17.079Z,102376.97
2023-01-25T06:36:44.883Z,102371.09
2023-01-25T06:39:12.972Z,102385.84
2023-01-25T06:41:42.823Z,102371.75
2023-01-25T06:44:10.646Z,102378.75
2023-01-25T06:46:38.420Z,102369.19
2023-01-25T06:49:06.162Z,102370.97
2023-01-25T06:51:35.263Z,102371.81
2023-01-25T06:54:05.599Z,102376.19
2023-01-25T06:56:33.766Z,102374.44
2023-01-25T06:59:01.423Z,102378.78
2023-01-25T07:01:30.359Z,102381.41
2023-01-25T07:04:00.146Z,102376.19
2023-01-25T07:06:33.545Z,102376.97
2023-01-25T07:09:05.647Z,102378.53
2023-01-25T07:11:35.747Z,102374.31
2023-01-25T07:14:07.106Z,102372.72
2023-01-25T07:16:38.575Z,102367.72
2023-01-25T07:19:07.211Z,102368.56
2023-01-25T07:21:34.939Z,102368.34
2023-01-25T07:24:05.730Z,102362.22
2023-01-25T07:26:33.805Z,102370.91
2023-01-25T07:29:01.759Z,102368.50
2023-01-25T07:31:30.005Z,102367.44
2023-01-25T07:34:01.303Z,102366.53
2023-01-25T07:36:29.083Z,102360.66
2023-01-25T07:38:58.887Z,102352.94
2023-01-25T07:41:28.541Z,102352.91
2023-01-25T07:43:56.639Z,102359.72
2023-01-25T07:46:46.342Z,102358.75
2023-01-25T07:49:16.454Z,102358.75
2023-01-25T07:51:44.213Z,102354.50
2023-01-25T07:54:12.772Z,102353.00
2023-01-25T07:56:43.027Z,102354.81
2023-01-25T07:59:11.531Z,102358.28
2023-01-25T08:01:40.597Z,102353.91
2023-01-25T08:04:08.667Z,102354.66
2023-01-25T08:06:38.824Z,102350.28
2023-01-25T08:09:09.471Z,102351.84
2023-01-25T08:11:39.303Z,102347.34
2023-01-25T08:14:09.183Z,102339.50
2023-01-25T08:16:36.851Z,102339.44
2023-01-25T08:19:05.307Z,102350.59
2023-01-25T08:21:34.479Z,102352.34
2023-01-25T08:24:04.701Z,102346.16
2023-01-25T08:26:32.691Z,102342.69
2023-01-25T08:29:00.419Z,102335.72
2023-01-25T08:31:35.188Z,102335.66
2023-01-25T08:34:07.780Z,102330.28
2023-01-25T08:36:35.438Z,102325.00
2023-01-25T08:39:08.940Z,102317.22
2023-01-25T08:41:37.216Z,102318.06
2023-01-25T08:44:05.565Z,102315.34
2023-01-25T08:46:36.070Z,102313.47
2023-01-25T08:49:04.993Z,102322.03
2023-01-25T08:51:34.107Z,102317.78
2023-01-25T08:54:05.750Z,102313.63
2023-01-25T08:56:35.553Z,102316.88
2023-01-25T08:59:05.911Z,102316.81
2023-01-25T09:01:40.231Z,102311.47
2023-01-25T09:04:08.050Z,102300.78
2023-01-25T09:06:35.713Z,102305.13
2023-01-25T09:09:04.618Z,102301.72
2023-01-25T09:11:37.044Z,102298.19
2023-01-25T09:14:05.174Z,102300.91
2023-01-25T09:16:32.964Z,102298.25
2023-01-25T09:19:06.813Z,102294.94
2023-01-25T09:21:36.995Z,102294.09
2023-01-25T09:24:07.862Z,102287.84
2023-01-25T09:26:40.832Z,102292.91
2023-01-25T09:29:11.488Z,102296.19
2023-01-25T09:31:43.698Z,102290.91
2023-01-25T09:34:39.108Z,102288.31
2023-01-25T09:37:06.877Z,102280.47
2023-01-25T09:39:36.919Z,102277.00
2023-01-25T09:42:24.224Z,102282.28
2023-01-25T09:45:21.242Z,102272.63
2023-01-25T09:48:02.097Z,102279.84
2023-01-25T09:50:42.896Z,102269.22
2023-01-25T09:53:24.278Z,102272.63
2023-01-25T09:55:55.536Z,102270.81
2023-01-25T09:58:28.971Z,102269.94
2023-01-25T10:01:13.899Z,102263.66
2023-01-25T10:03:48.765Z,102261.94
2023-01-25T10:06:23.577Z,102259.16
2023-01-25T10:08:59.711Z,102263.28
2023-01-25T10:11:29.875Z,102254.97
2023-01-25T10:13:58.583Z,102259.84
2023-01-25T10:16:33.414Z,102254.69
2023-01-25T10:19:15.276Z,102250.16
2023-01-25T10:21:49.218Z,102253.00
2023-01-25T10:24:40.707Z,102252.22
2023-01-25T10:27:22.696Z,102248.75
2023-01-25T10:29:55.084Z,102241.91
2023-01-25T10:32:28.111Z,102240.56
2023-01-25T10:34:59.171Z,102233.78
2023-01-25T10:37:33.207Z,102228.63
2023-01-25T10:40:05.534Z,102225.25
2023-01-25T10:42:41.498Z,102220.00
2023-01-25T10:45:13.054Z,102214.91
2023-01-25T10:47:43.730Z,102215.75
2023-01-25T10:50:46.320Z,102219.88
2023-01-25T10:53:31.370Z,102209.56
2023-01-25T10:56:19.182Z,102202.69
2023-01-25T10:58:48.847Z,102197.56
2023-01-25T11:01:28.489Z,102193.53
2023-01-25T11:03:56.397Z,102190.22
2023-01-25T11:06:35.647Z,102186.84
2023-01-25T11:09:35.517Z,102180.75
2023-01-25T11:12:05.755Z,102183.53
2023-01-25T11:14:34.499Z,102166.84
2023-01-25T11:17:05.770Z,102162.69
2023-01-25T11:19:36.360Z,102156.69
2023-01-25T11:22:07.334Z,102163.00
2023-01-25T11:24:37.468Z,102162.84
2023-01-25T11:27:18.819Z,102153.22
2023-01-25T11:29:49.570Z,102147.09
2023-01-25T11:32:24.967Z,102140.25
2023-01-25T11:34:52.989Z,102141.94
2023-01-25T11:37:34.112Z,102141.19
2023-01-25T11:40:15.919Z,102138.63
2023-01-25T11:42:58.475Z,102129.88
2023-01-25T11:45:48.244Z,102120.41
2023-01-25T11:48:32.711Z,102118.72
2023-01-25T11:51:08.779Z,102103.22
2023-01-25T11:53:51.216Z,102103.13
2023-01-25T11:56:32.705Z,102099.66
2023-01-25T11:59:17.764Z,102085.75
2023-01-25T12:02:03.035Z,102079.78
2023-01-25T12:04:45.025Z,102071.16
2023-01-25T12:07:22.012Z,102069.47
2023-01-25T12:10:05.095Z,102059.25
2023-01-25T12:12:42.882Z,102048.75
2023-01-25T12:15:25.962Z,102053.97
2023-01-25T12:18:29.166Z,102053.31
2023-01-25T12:21:08.097Z,102055.03
2023-01-25T12:23:57.081Z,102050.03
2023-01-25T12:26:29.267Z,102048.47
2023-01-25T12:29:06.901Z,102038.25
2023-01-25T12:31:44.846Z,102020.91
2023-01-25T12:34:19.259Z,102011.66
2023-01-25T12:36:49.506Z,102007.44
2023-01-25T12:39:24.344Z,101997.16
2023-01-25T12:41:57.122Z,101992.06
2023-01-25T12:44:28.699Z,101989.16
2023-01-25T12:47:03.584Z,101982.88
2023-01-25T12:49:40.113Z,101969.78
2023-01-25T12:52:21.476Z,101965.28
2023-01-25T12:54:49.455Z,101959.94
2023-01-25T12:57:22.752Z,101951.41
2023-01-25T13:00:00.513Z,101947.19
2023-01-25T13:02:51.752Z,101941.06
2023-01-25T13:05:33.841Z,101950.56
2023-01-25T13:08:15.852Z,101931.28
2023-01-25T13:10:59.319Z,101929.66
2023-01-25T13:13:28.799Z,101924.38
2023-01-25T13:15:57.861Z,101928.84
2023-01-25T13:18:41.879Z,101925.84
2023-01-25T13:21:12.795Z,101926.03
2023-01-25T13:23:47.157Z,101915.16
2023-01-25T13:26:48.469Z,101910.38
2023-01-25T13:29:51.802Z,101905.28
2023-01-25T13:32:55.480Z,101905.47
2023-01-25T13:35:41.156Z,101892.72
2023-01-25T13:38:36.699Z,101897.34
2023-01-25T13:41:17.283Z,101892.56
2023-01-25T13:43:48.984Z,101897.16
2023-01-25T13:46:20.455Z,101898.91
2023-01-25T13:48:56.377Z,101882.63
2023-01-25T13:51:27.915Z,101890.63
2023-01-25T13:54:00.511Z,101882.84
2023-01-25T13:56:41.664Z,101878.44
2023-01-25T13:59:24.856Z,101866.97
2023-01-25T14:01:52.772Z,101864.38
2023-01-25T14:04:26.677Z,101858.25
2023-01-25T14:07:00.430Z,101862.63
2023-01-25T14:09:28.730Z,101861.03
2023-01-25T14:11:58.872Z,101855.94
2023-01-25T14:14:28.873Z,101856.16
2023-01-25T14:19:44.185Z,101847.63
2023-01-25T14:22:22.173Z,101849.47
2023-01-25T14:25:18.279Z,101862.03
2023-01-25T14:27:48.426Z,101858.78
2023-01-25T14:30:20.235Z,101865.41
2023-01-25T14:32:51.350Z,101865.50
2023-01-25T14:35:54.366Z,101861.31
2023-01-25T14:38:34.426Z,101853.22
2023-01-25T14:41:13.288Z,101857.50
2023-01-25T14:43:45.251Z,101865.28
2023-01-25T14:46:24.945Z,101858.97
2023-01-25T14:48:54.956Z,101854.06
2023-01-25T14:51:42.171Z,101842.72
2023-01-25T14:54:31.855Z,101842.66
2023-01-25T14:57:01.710Z,101840.72
2023-01-25T14:59:38.267Z,101846.72
2023-01-25T15:02:24.410Z,101831.31
2023-01-25T15:04:58.025Z,101835.59
2023-01-25T15:07:39.010Z,101832.91
2023-01-25T15:10:18.298Z,101821.84
2023-01-25T15:13:11.627Z,101820.03
2023-01-25T15:15:51.730Z,101811.44
2023-01-25T15:18:43.994Z,101808.22
2023-01-25T15:21:13.379Z,101816.03
2023-01-25T15:23:42.451Z,101818.94
2023-01-25T15:26:21.608Z,101813.72
2023-01-25T15:28:49.949Z,101820.69
2023-01-25T15:31:19.114Z,101812.88
2023-01-25T15:33:47.018Z,101813.84
2023-01-25T15:36:16.908Z,101813.72
2023-01-25T15:38:44.662Z,101807.56
2023-01-25T15:41:13.685Z,101800.69
2023-01-25T15:43:43.048Z,101791.25
2023-01-25T15:46:17.285Z,101785.88
2023-01-25T15:48:47.695Z,101797.91
2023-01-25T15:51:15.452Z,101785.88
2023-01-25T15:53:43.274Z,101787.78
2023-01-25T15:56:16.289Z,101787.78
2023-01-25T15:58:48.704Z,101778.28
2023-01-25T16:01:16.610Z,101786.88
2023-01-25T16:03:44.457Z,101789.47
2023-01-25T16:06:29.577Z,101780.88
2023-01-25T16:08:58.671Z,101783.78
2023-01-25T16:11:26.456Z,101783.25
2023-01-25T16:13:56.859Z,101785.06
2023-01-25T16:16:27.905Z,101785.19
2023-01-25T16:18:56.000Z,101788.66
2023-01-25T16:21:23.653Z,101784.59
2023-01-25T16:23:51.443Z,101782.03
2023-01-25T16:26:23.761Z,101778.69
2023-01-25T16:28:53.853Z,101773.69
2023-01-25T16:31:32.353Z,101769.31
2023-01-25T16:34:01.465Z,101777.34
2023-01-25T16:36:29.534Z,101765.38
2023-01-25T16:38:57.219Z,101760.25
2023-01-25T16:41:25.059Z,101764.69
2023-01-25T16:43:57.727Z,101764.88
2023-01-25T16:46:27.229Z,101757.34
2023-01-25T16:49:00.170Z,101754.06
2023-01-25T16:51:32.863Z,101754.91
2023-01-25T16:54:00.673Z,101753.56
2023-01-25T16:56:30.309Z,101752.66
2023-01-25T16:59:01.816Z,101739.94
2023-01-25T17:01:31.442Z,101745.19
2023-01-25T17:04:08.372Z,101736.53
2023-01-25T17:06:37.830Z,101741.59
2023-01-25T17:09:21.528Z,101742.38
2023-01-25T17:11:52.968Z,101745.75
2023-01-25T17:14:21.297Z,101743.78
2023-01-25T17:16:51.758Z,101744.69
2023-01-25T17:19:20.608Z,101731.59
2023-01-25T17:21:48.772Z,101722.66
2023-01-25T17:24:18.796Z,101719.16
2023-01-25T17:26:46.696Z,101721.44
2023-01-25T17:29:14.618Z,101710.91
2023-01-25T17:31:44.024Z,101710.97
2023-01-25T17:34:19.260Z,101698.78
2023-01-25T17:36:47.462Z,101700.63
2023-01-25T17:39:17.031Z,101705.09
2023-01-25T17:41:45.540Z,101712.97
2023-01-25T17:44:14.028Z,101712.91
2023-01-25T17:46:41.783Z,101708.53
2023-01-25T17:49:16.573Z,101703.38
2023-01-25T17:51:44.421Z,101708.66
2023-01-25T17:54:13.571Z,101722.59
2023-01-25T17:56:41.450Z,101735.91
2023-01-25T17:59:11.386Z,101736.13
2023-01-25T18:01:42.460Z,101737.03
2023-01-25T18:04:13.224Z,101729.97
2023-01-25T18:06:42.468Z,101731.59
2023-01-25T18:09:10.556Z,101725.78
2023-01-25T18:11:41.213Z,101707.69
2023-01-25T18:14:12.565Z,101711.06
2023-01-25T18:16:41.724Z,101701.50
2023-01-25T18:19:15.096Z,101703.38
2023-01-25T18:21:44.595Z,101711.97
2023-01-25T18:24:31.896Z,101691.09
2023-01-25T18:27:06.487Z,101686.50
2023-01-25T18:29:47.803Z,101686.38
2023-01-25T18:32:16.558Z,101675.16
2023-01-25T18:34:44.355Z,101671.72
2023-01-25T18:37:20.615Z,101675.94
2023-01-25T18:39:55.902Z,101675.72
2023-01-25T18:42:25.558Z,101681.22
2023-01-25T18:44:53.304Z,101676.88
2023-01-25T18:47:22.845Z,101674.63
2023-01-25T18:49:52.404Z,101667.50
2023-01-25T18:52:22.892Z,101665.91
2023-01-25T18:54:54.472Z,101664.88
2023-01-25T18:57:22.265Z,101654.47
2023-01-25T18:59:50.100Z,101648.28
2023-01-25T19:02:18.639Z,101653.44
2023-01-25T19:04:46.458Z,101641.19
2023-01-25T19:07:14.670Z,101641.88
2023-01-25T19:09:44.476Z,101633.44
2023-01-25T19:12:12.430Z,101631.69
2023-01-25T19:14:40.100Z,101628.31
2023-01-25T19:17:09.223Z,101614.56
2023-01-25T19:19:36.919Z,101617.75
2023-01-25T19:22:05.961Z,101622.88
2023-01-25T19:24:33.686Z,101619.34
2023-01-25T19:27:02.816Z,101611.59
2023-01-25T19:32:06.706Z,101605.66
2023-01-25T19:34:34.563Z,101593.75
2023-01-25T19:37:02.288Z,101591.97
2023-01-25T19:39:30.262Z,101604.31
2023-01-25T19:41:58.025Z,101607.78
2023-01-25T19:44:27.336Z,101596.50
2023-01-25T19:46:55.051Z,101589.38
2023-01-25T19:49:23.380Z,101586.34
2023-01-25T19:51:53.061Z,101579.50
2023-01-25T19:54:21.749Z,101583.25
2023-01-25T19:56:50.434Z,101585.09
2023-01-25T19:59:19.959Z,101576.66
2023-01-25T20:01:49.362Z,101572.38
2023-01-25T20:04:20.581Z,101558.44
2023-01-25T20:06:51.750Z,101569.00
2023-01-25T20:09:28.421Z,101573.28
2023-01-25T20:11:57.044Z,101578.50
2023-01-25T20:14:27.278Z,101575.94
2023-01-25T20:16:57.948Z,101568.16
2023-01-25T20:19:30.795Z,101553.50
2023-01-25T20:22:00.398Z,101558.66
2023-01-25T20:24:31.064Z,101557.72
2023-01-25T20:26:59.561Z,101555.19
2023-01-25T20:29:28.735Z,101550.78
2023-01-25T20:31:57.895Z,101543.03
2023-01-25T20:34:26.849Z,101545.50
2023-01-25T20:36:54.551Z,101539.38
2023-01-25T20:39:23.093Z,101547.09
2023-01-25T20:41:56.598Z,101550.47
2023-01-25T20:44:24.320Z,101560.03
2023-01-25T20:46:52.855Z,101548.72
2023-01-25T20:49:22.021Z,101547.50
2023-01-25T20:51:49.786Z,101547.44
2023-01-25T20:54:18.161Z,101542.16
2023-01-25T20:56:47.763Z,101541.38
2023-01-25T20:59:16.529Z,101538.00
2023-01-25T21:01:46.640Z,101539.00
2023-01-25T21:04:14.536Z,101549.56
2023-01-25T21:06:46.145Z,101551.47
2023-01-25T21:09:13.924Z,101551.56
2023-01-25T21:11:46.332Z,101546.41
2023-01-25T21:14:16.724Z,101541.19
2023-01-25T21:16:44.466Z,101538.75
2023-01-25T21:19:12.231Z,101537.81
2023-01-25T21:21:41.436Z,101541.13
2023-01-25T21:24:11.791Z,101541.88
2023-01-25T21:26:42.192Z,101535.75
2023-01-25T21:29:10.047Z,101519.25
2023-01-25T21:31:42.961Z,101526.28
2023-01-25T21:34:12.395Z,101523.66
2023-01-25T21:36:40.130Z,101523.66
2023-01-25T21:39:08.048Z,101520.16
2023-01-25T21:41:37.188Z,101514.94
2023-01-25T21:44:22.887Z,101520.31
2023-01-25T21:49:55.971Z,101518.56
2023-01-25T21:52:23.780Z,101517.72
2023-01-25T21:54:51.580Z,101514.28
2023-01-25T21:57:21.060Z,101519.41
2023-01-25T21:59:48.898Z,101528.88
2023-01-25T22:02:17.818Z,101526.28
2023-01-25T22:04:47.259Z,101522.63
2023-01-25T22:07:15.025Z,101522.75
2023-01-25T22:09:42.788Z,101517.53
2023-01-25T22:12:12.218Z,101524.59
2023-01-25T22:14:41.541Z,101527.34
2023-01-25T22:17:11.452Z,101533.63
2023-01-25T22:19:47.826Z,101540.66
2023-01-25T22:22:18.187Z,101532.00
2023-01-25T22:24:47.498Z,101526.03
2023-01-25T22:27:37.897Z,101522.66
2023-01-25T22:30:13.026Z,101526.31
2023-01-25T22:32:40.881Z,101517.81
2023-01-25T22:35:14.045Z,101521.25
2023-01-25T22:37:43.912Z,101516.91
2023-01-25T22:40:14.286Z,101510.09
2023-01-25T22:42:51.598Z,101500.31
2023-01-25T22:45:20.763Z,101501.09
2023-01-25T22:47:50.592Z,101491.66
2023-01-25T22:50:18.475Z,101498.63
2023-01-25T22:52:46.203Z,101489.19
2023-01-25T22:55:13.969Z,101484.09
2023-01-25T22:57:43.956Z,101474.59
2023-01-25T23:00:18.056Z,101469.16
2023-01-25T23:02:47.170Z,101475.28
2023-01-25T23:05:15.134Z,101469.94
2023-01-25T23:07:45.039Z,101467.25
2023-01-25T23:10:16.346Z,101467.25
2023-01-25T23:12:44.219Z,101462.06
2023-01-25T23:15:15.398Z,101467.34
2023-01-25T23:18:00.813Z,101455.84
2023-01-25T23:20:30.842Z,101438.34
2023-01-25T23:22:58.537Z,101439.00
2023-01-25T23:25:26.313Z,101437.34
2023-01-25T23:27:54.167Z,101428.59
2023-01-25T23:30:24.076Z,101431.97
2023-01-25T23:32:51.943Z,101437.03
2023-01-25T23:35:20.398Z,101429.22
2023-01-25T23:37:49.525Z,101420.66
2023-01-25T23:40:17.528Z,101407.72
2023-01-25T23:42:45.272Z,101410.31
2023-01-25T23:45:13.013Z,101412.91
2023-01-25T23:47:50.611Z,101413.53
2023-01-25T23:50:18.663Z,101404.72
2023-01-25T23:52:48.635Z,101403.81
2023-01-25T23:55:19.081Z,101407.50
2023-01-25T23:57:46.773Z,101401.50
